createdAt,value
2022-09-06T00:00:06.923Z,51.20
2022-09-06T00:01:06.849Z,50.10
2022-09-06T00:02:06.863Z,51.00
2022-09-06T00:03:06.857Z,51.20
2022-09-06T00:04:08.133Z,50.73
2022-09-06T00:05:06.797Z,51.03
2022-09-06T00:06:06.777Z,50.52
2022-09-06T00:07:06.906Z,51.13
2022-09-06T00:08:06.790Z,51.03
2022-09-06T00:09:06.757Z,50.52
2022-09-06T00:10:06.772Z,51.43
2022-09-06T00:11:06.726Z,50.62
2022-09-06T00:12:06.842Z,50.73
2022-09-06T00:13:06.726Z,50.73
2022-09-06T00:14:06.692Z,50.52
2022-09-06T00:15:06.793Z,51.35
2022-09-06T00:16:06.723Z,51.13
2022-09-06T00:17:06.689Z,50.75
2022-09-06T00:18:06.646Z,50.75
2022-09-06T00:19:06.656Z,51.66
2022-09-06T00:20:06.712Z,50.55
2022-09-06T00:21:06.607Z,52.16
2022-09-06T00:22:06.648Z,51.66
2022-09-06T00:23:06.628Z,51.56
2022-09-06T00:24:06.573Z,51.96
2022-09-06T00:25:06.558Z,51.96
2022-09-06T00:26:06.555Z,51.66
2022-09-06T00:27:06.627Z,51.76
2022-09-06T00:28:06.554Z,51.45
2022-09-06T00:29:06.511Z,51.76
2022-09-06T00:30:06.509Z,51.66
2022-09-06T00:31:06.647Z,51.96
2022-09-06T00:32:06.505Z,51.96
2022-09-06T00:33:06.509Z,52.26
2022-09-06T00:34:06.460Z,51.76
2022-09-06T00:35:06.466Z,51.86
2022-09-06T00:36:06.442Z,51.86
2022-09-06T00:37:06.609Z,51.66
2022-09-06T00:38:06.440Z,52.16
2022-09-06T00:39:06.409Z,51.96
2022-09-06T00:40:06.511Z,52.36
2022-09-06T00:41:06.425Z,53.17
2022-09-06T00:42:06.378Z,51.89
2022-09-06T00:43:06.346Z,51.66
2022-09-06T00:44:06.346Z,51.89
2022-09-06T00:45:06.333Z,52.49
2022-09-06T00:46:06.388Z,52.59
2022-09-06T00:47:06.340Z,52.69
2022-09-06T00:48:06.285Z,52.89
2022-09-06T00:49:06.368Z,52.49
2022-09-06T00:50:06.275Z,52.39
2022-09-06T00:51:06.263Z,53.00
2022-09-06T00:52:06.270Z,52.09
2022-09-06T00:53:06.234Z,52.09
2022-09-06T00:54:06.242Z,52.82
2022-09-06T00:55:06.233Z,52.82
2022-09-06T00:56:06.201Z,52.79
2022-09-06T00:57:06.353Z,53.09
2022-09-06T00:58:06.199Z,52.49
2022-09-06T00:59:06.171Z,52.79
2022-09-06T01:00:06.156Z,52.79
2022-09-06T01:01:06.266Z,52.49
2022-09-06T01:02:06.258Z,53.02
2022-09-06T01:03:06.127Z,53.22
2022-09-06T01:04:06.139Z,53.12
2022-09-06T01:05:06.090Z,53.42
2022-09-06T01:06:06.102Z,53.22
2022-09-06T01:07:06.078Z,52.61
2022-09-06T01:08:06.079Z,53.32
2022-09-06T01:09:06.133Z,53.12
2022-09-06T01:10:06.051Z,52.72
2022-09-06T01:11:06.029Z,53.32
2022-09-06T01:12:06.017Z,53.32
2022-09-06T01:13:06.017Z,52.82
2022-09-06T01:14:05.992Z,52.72
2022-09-06T01:15:06.042Z,53.22
2022-09-06T01:16:06.012Z,53.14
2022-09-06T01:17:05.964Z,53.45
2022-09-06T01:18:05.965Z,53.65
2022-09-06T01:19:05.936Z,53.45
2022-09-06T01:20:05.959Z,52.94
2022-09-06T01:21:05.909Z,53.85
2022-09-06T01:22:05.895Z,54.25
2022-09-06T01:23:05.911Z,53.55
2022-09-06T01:24:05.874Z,53.85
2022-09-06T01:25:05.867Z,54.16
2022-09-06T01:26:05.848Z,52.94
2022-09-06T01:27:05.842Z,52.94
2022-09-06T01:28:05.850Z,53.05
2022-09-06T01:29:05.819Z,53.25
2022-09-06T01:30:05.824Z,53.85
2022-09-06T01:31:05.913Z,53.05
2022-09-06T01:32:05.847Z,53.25
2022-09-06T01:33:05.790Z,52.84
2022-09-06T01:34:05.768Z,53.45
2022-09-06T01:35:05.741Z,53.85
2022-09-06T01:36:05.794Z,53.65
2022-09-06T01:37:10.245Z,54.36
2022-09-06T01:38:05.730Z,53.96
2022-09-06T01:39:05.704Z,54.25
2022-09-06T01:40:05.891Z,53.45
2022-09-06T01:41:05.687Z,53.55
2022-09-06T01:42:05.691Z,53.75
2022-09-06T01:43:10.211Z,54.05
2022-09-06T01:44:06.658Z,53.55
2022-09-06T01:45:05.644Z,54.96
2022-09-06T01:46:05.778Z,53.96
2022-09-06T01:47:05.654Z,53.85
2022-09-06T01:48:05.626Z,54.05
2022-09-06T01:49:05.600Z,54.16
2022-09-06T01:50:05.572Z,53.45
2022-09-06T01:51:05.568Z,53.25
2022-09-06T01:52:05.554Z,53.45
2022-09-06T01:53:05.695Z,53.25
2022-09-06T01:54:05.530Z,54.16
2022-09-06T01:55:05.526Z,53.96
2022-09-06T01:56:05.522Z,54.25
2022-09-06T01:57:05.573Z,53.85
2022-09-06T01:58:05.504Z,53.75
2022-09-06T01:59:05.477Z,53.65
2022-09-06T02:00:05.515Z,53.75
2022-09-06T02:01:05.517Z,53.55
2022-09-06T02:02:05.480Z,54.66
2022-09-06T02:03:05.451Z,53.96
2022-09-06T02:04:05.430Z,53.96
2022-09-06T02:05:05.428Z,53.55
2022-09-06T02:06:05.409Z,53.55
2022-09-06T02:07:05.403Z,53.72
2022-09-06T02:08:05.387Z,53.55
2022-09-06T02:09:05.533Z,54.46
2022-09-06T02:10:05.356Z,53.85
2022-09-06T02:11:05.379Z,53.55
2022-09-06T02:12:05.370Z,53.75
2022-09-06T02:13:05.329Z,54.16
2022-09-06T02:14:05.340Z,54.16
2022-09-06T02:15:05.286Z,54.56
2022-09-06T02:16:05.286Z,55.98
2022-09-06T02:17:05.438Z,55.27
2022-09-06T02:18:05.279Z,54.56
2022-09-06T02:19:05.340Z,55.07
2022-09-06T02:20:05.250Z,54.86
2022-09-06T02:21:05.280Z,55.16
2022-09-06T02:22:05.208Z,55.29
2022-09-06T02:23:05.207Z,55.67
2022-09-06T02:24:05.215Z,55.27
2022-09-06T02:25:05.179Z,55.57
2022-09-06T02:26:05.179Z,55.69
2022-09-06T02:27:05.262Z,55.69
2022-09-06T02:28:05.158Z,55.47
2022-09-06T02:29:05.134Z,55.49
2022-09-06T02:30:05.118Z,56.20
2022-09-06T02:31:05.189Z,55.80
2022-09-06T02:32:05.113Z,57.31
2022-09-06T02:33:05.106Z,55.90
2022-09-06T02:34:05.074Z,57.11
2022-09-06T02:35:05.112Z,57.21
2022-09-06T02:36:05.051Z,57.21
2022-09-06T02:37:05.043Z,57.01
2022-09-06T02:38:05.058Z,56.61
2022-09-06T02:39:05.015Z,57.31
2022-09-06T02:40:05.052Z,57.31
2022-09-06T02:41:05.009Z,57.11
2022-09-06T02:42:04.982Z,57.42
2022-09-06T02:43:04.982Z,57.31
2022-09-06T02:44:04.963Z,57.31
2022-09-06T02:45:04.960Z,57.11
2022-09-06T02:46:04.993Z,57.52
2022-09-06T02:47:04.947Z,57.82
2022-09-06T02:48:04.928Z,57.34
2022-09-06T02:49:04.927Z,57.34
2022-09-06T02:50:04.909Z,57.75
2022-09-06T02:51:04.872Z,57.85
2022-09-06T02:52:04.870Z,57.85
2022-09-06T02:53:04.861Z,59.06
2022-09-06T02:54:04.898Z,58.76
2022-09-06T02:55:04.843Z,59.06
2022-09-06T02:56:04.904Z,58.76
2022-09-06T02:57:04.806Z,59.16
2022-09-06T02:58:04.800Z,58.86
2022-09-06T02:59:04.794Z,58.76
2022-09-06T03:00:04.776Z,59.16
2022-09-06T03:01:04.810Z,59.36
2022-09-06T03:02:04.778Z,59.27
2022-09-06T03:03:04.852Z,58.76
2022-09-06T03:04:04.728Z,59.36
2022-09-06T03:05:04.734Z,59.56
2022-09-06T03:06:04.799Z,59.97
2022-09-06T03:07:04.713Z,59.06
2022-09-06T03:08:04.684Z,59.67
2022-09-06T03:09:04.682Z,59.77
2022-09-06T03:10:04.663Z,59.56
2022-09-06T03:11:04.654Z,60.38
2022-09-06T03:12:04.700Z,60.58
2022-09-06T03:13:04.615Z,60.27
2022-09-06T03:14:04.611Z,60.07
2022-09-06T03:15:04.757Z,59.67
2022-09-06T03:16:04.599Z,60.27
2022-09-06T03:17:04.689Z,60.17
2022-09-06T03:18:04.601Z,60.27
2022-09-06T03:19:04.646Z,60.41
2022-09-06T03:20:04.549Z,60.48
2022-09-06T03:21:04.558Z,60.50
2022-09-06T03:22:04.529Z,60.78
2022-09-06T03:23:04.673Z,60.61
2022-09-06T03:24:04.491Z,60.88
2022-09-06T03:25:04.507Z,60.81
2022-09-06T03:26:04.469Z,60.91
2022-09-06T03:27:04.461Z,61.01
2022-09-06T03:28:04.450Z,61.21
2022-09-06T03:29:04.459Z,60.61
2022-09-06T03:30:04.515Z,61.41
2022-09-06T03:31:04.526Z,61.62
2022-09-06T03:32:04.406Z,61.01
2022-09-06T03:33:04.466Z,61.62
2022-09-06T03:34:07.980Z,61.72
2022-09-06T03:35:05.368Z,60.91
2022-09-06T03:36:04.385Z,60.91
2022-09-06T03:37:04.347Z,61.41
2022-09-06T03:38:04.344Z,61.32
2022-09-06T03:39:04.330Z,61.82
2022-09-06T03:40:04.357Z,61.62
2022-09-06T03:41:04.309Z,62.02
2022-09-06T03:42:04.353Z,61.72
2022-09-06T03:43:04.283Z,61.32
2022-09-06T03:44:04.286Z,61.92
2022-09-06T03:45:04.302Z,61.72
2022-09-06T03:46:04.313Z,61.62
2022-09-06T03:47:04.235Z,61.41
2022-09-06T03:48:04.227Z,61.62
2022-09-06T03:49:04.245Z,61.62
2022-09-06T03:50:04.203Z,61.32
2022-09-06T03:51:04.224Z,61.72
2022-09-06T03:52:04.182Z,62.12
2022-09-06T03:53:04.234Z,62.02
2022-09-06T03:54:04.158Z,61.52
2022-09-06T03:55:04.161Z,62.02
2022-09-06T03:56:04.143Z,61.72
2022-09-06T03:57:04.132Z,62.23
2022-09-06T03:58:04.107Z,62.43
2022-09-06T03:59:04.096Z,62.02
2022-09-06T04:00:04.151Z,61.72
2022-09-06T04:01:04.098Z,62.23
2022-09-06T04:02:04.090Z,62.53
2022-09-06T04:03:04.044Z,62.33
2022-09-06T04:04:04.055Z,62.12
2022-09-06T04:05:04.081Z,62.12
2022-09-06T04:06:04.097Z,61.82
2022-09-06T04:07:04.046Z,62.53
2022-09-06T04:08:03.988Z,62.02
2022-09-06T04:09:03.973Z,62.93
2022-09-06T04:10:04.014Z,61.72
2022-09-06T04:11:03.955Z,61.72
2022-09-06T04:12:03.952Z,62.63
2022-09-06T04:13:03.946Z,62.33
2022-09-06T04:14:03.919Z,62.43
2022-09-06T04:15:03.947Z,62.43
2022-09-06T04:16:03.903Z,62.33
2022-09-06T04:17:04.001Z,62.02
2022-09-06T04:18:08.565Z,62.12
2022-09-06T04:19:04.868Z,62.02
2022-09-06T04:20:03.885Z,62.26
2022-09-06T04:21:03.862Z,62.53
2022-09-06T04:22:03.827Z,62.93
2022-09-06T04:23:03.883Z,62.26
2022-09-06T04:24:03.802Z,62.12
2022-09-06T04:25:03.798Z,62.33
2022-09-06T04:26:03.803Z,62.12
2022-09-06T04:27:03.784Z,62.26
2022-09-06T04:28:03.769Z,62.66
2022-09-06T04:29:03.764Z,62.66
2022-09-06T04:30:03.738Z,62.35
2022-09-06T04:31:05.149Z,62.86
2022-09-06T04:32:03.810Z,62.76
2022-09-06T04:33:03.721Z,62.96
2022-09-06T04:34:03.704Z,62.56
2022-09-06T04:35:03.677Z,62.56
2022-09-06T04:36:03.671Z,62.76
2022-09-06T04:37:03.654Z,62.46
2022-09-06T04:38:03.649Z,62.96
2022-09-06T04:39:03.876Z,62.56
2022-09-06T04:40:03.716Z,62.46
2022-09-06T04:41:03.605Z,62.56
2022-09-06T04:42:03.620Z,62.76
2022-09-06T04:43:03.591Z,62.56
2022-09-06T04:44:03.589Z,62.76
2022-09-06T04:45:03.587Z,62.35
2022-09-06T04:46:03.672Z,62.56
2022-09-06T04:47:07.421Z,62.46
2022-09-06T04:48:04.540Z,62.35
2022-09-06T04:49:03.529Z,62.46
2022-09-06T04:50:03.532Z,62.86
2022-09-06T04:51:03.518Z,62.66
2022-09-06T04:52:03.497Z,62.56
2022-09-06T04:53:03.480Z,62.66
2022-09-06T04:54:03.486Z,62.76
2022-09-06T04:55:03.459Z,62.76
2022-09-06T04:56:03.454Z,62.76
2022-09-06T04:57:03.531Z,63.47
2022-09-06T04:58:03.437Z,63.27
2022-09-06T04:59:03.408Z,62.76
2022-09-06T05:00:03.431Z,62.56
2022-09-06T05:01:03.433Z,62.76
2022-09-06T05:02:03.459Z,62.66
2022-09-06T05:03:03.355Z,62.96
2022-09-06T05:04:03.400Z,62.66
2022-09-06T05:05:03.335Z,62.56
2022-09-06T05:06:03.331Z,63.37
2022-09-06T05:07:03.473Z,62.99
2022-09-06T05:08:03.330Z,63.17
2022-09-06T05:09:03.295Z,63.27
2022-09-06T05:10:03.282Z,63.07
2022-09-06T05:11:03.265Z,62.96
2022-09-06T05:12:03.256Z,63.27
2022-09-06T05:13:03.256Z,63.98
2022-09-06T05:14:03.230Z,63.98
2022-09-06T05:15:03.225Z,63.47
2022-09-06T05:16:03.265Z,63.47
2022-09-06T05:17:03.197Z,63.27
2022-09-06T05:18:03.204Z,64.07
2022-09-06T05:19:03.180Z,63.98
2022-09-06T05:20:03.164Z,63.87
2022-09-06T05:21:03.154Z,63.27
2022-09-06T05:22:03.140Z,62.96
2022-09-06T05:23:03.130Z,62.96
2022-09-06T05:24:03.139Z,64.38
2022-09-06T05:25:03.107Z,63.37
2022-09-06T05:26:03.107Z,63.17
2022-09-06T05:27:03.101Z,63.78
2022-09-06T05:28:03.084Z,63.57
2022-09-06T05:29:03.080Z,64.38
2022-09-06T05:30:03.059Z,64.28
2022-09-06T05:31:03.042Z,64.07
2022-09-06T05:32:03.105Z,63.27
2022-09-06T05:33:03.020Z,63.37
2022-09-06T05:34:03.019Z,63.47
2022-09-06T05:35:03.010Z,63.87
2022-09-06T05:36:02.999Z,63.27
2022-09-06T05:37:02.985Z,63.07
2022-09-06T05:38:02.962Z,63.17
2022-09-06T05:39:02.950Z,63.17
2022-09-06T05:40:03.029Z,62.96
2022-09-06T05:41:02.925Z,62.96
2022-09-06T05:42:02.914Z,62.96
2022-09-06T05:43:02.898Z,63.27
2022-09-06T05:44:02.896Z,62.96
2022-09-06T05:45:02.878Z,62.43
2022-09-06T05:46:02.945Z,62.56
2022-09-06T05:47:02.855Z,62.76
2022-09-06T05:48:02.847Z,63.13
2022-09-06T05:49:02.827Z,63.04
2022-09-06T05:50:02.820Z,63.34
2022-09-06T05:51:02.824Z,62.84
2022-09-06T05:52:02.803Z,63.44
2022-09-06T05:53:02.786Z,63.24
2022-09-06T05:54:02.778Z,63.13
2022-09-06T05:55:02.759Z,62.84
2022-09-06T05:56:02.760Z,62.93
2022-09-06T05:57:02.755Z,62.73
2022-09-06T05:58:02.731Z,62.43
2022-09-06T05:59:02.720Z,62.84
2022-09-06T06:00:02.704Z,62.73
2022-09-06T06:01:02.772Z,62.33
2022-09-06T06:02:06.702Z,62.93
2022-09-06T06:03:02.675Z,62.53
2022-09-06T06:04:02.658Z,63.24
2022-09-06T06:05:02.646Z,63.31
2022-09-06T06:06:02.652Z,62.93
2022-09-06T06:07:02.634Z,62.60
2022-09-06T06:08:02.628Z,62.50
2022-09-06T06:09:02.601Z,62.50
2022-09-06T06:10:02.590Z,62.81
2022-09-06T06:11:02.582Z,62.30
2022-09-06T06:12:02.564Z,62.81
2022-09-06T06:13:02.574Z,62.60
2022-09-06T06:14:02.556Z,62.50
2022-09-06T06:15:02.550Z,62.40
2022-09-06T06:16:02.545Z,62.19
2022-09-06T06:17:02.607Z,62.10
2022-09-06T06:18:02.500Z,62.40
2022-09-06T06:19:02.499Z,62.50
2022-09-06T06:20:02.479Z,62.30
2022-09-06T06:21:02.466Z,62.40
2022-09-06T06:22:02.449Z,63.01
2022-09-06T06:23:02.445Z,66.14
2022-09-06T06:24:02.446Z,66.24
2022-09-06T06:25:02.421Z,66.64
2022-09-06T06:26:02.404Z,64.62
2022-09-06T06:27:02.405Z,64.32
2022-09-06T06:28:02.386Z,64.42
2022-09-06T06:29:02.376Z,64.42
2022-09-06T06:30:02.374Z,63.71
2022-09-06T06:31:02.381Z,63.51
2022-09-06T06:32:02.469Z,62.81
2022-09-06T06:33:02.331Z,62.40
2022-09-06T06:34:02.330Z,62.60
2022-09-06T06:35:02.319Z,62.40
2022-09-06T06:36:02.291Z,62.10
2022-09-06T06:37:02.278Z,62.57
2022-09-06T06:38:02.265Z,62.77
2022-09-06T06:39:02.255Z,62.67
2022-09-06T06:40:02.349Z,61.76
2022-09-06T06:41:06.554Z,61.87
2022-09-06T06:42:02.235Z,62.27
2022-09-06T06:43:02.207Z,61.76
2022-09-06T06:44:02.193Z,61.56
2022-09-06T06:45:02.197Z,62.16
2022-09-06T06:46:02.241Z,61.73
2022-09-06T06:47:02.176Z,62.54
2022-09-06T06:48:02.160Z,62.04
2022-09-06T06:49:02.167Z,61.94
2022-09-06T06:50:02.130Z,61.76
2022-09-06T06:51:02.132Z,62.04
2022-09-06T06:52:02.127Z,61.63
2022-09-06T06:53:02.121Z,61.83
2022-09-06T06:54:02.097Z,62.24
2022-09-06T06:55:02.077Z,62.44
2022-09-06T06:56:02.064Z,62.14
2022-09-06T06:57:02.078Z,62.04
2022-09-06T06:58:02.041Z,61.83
2022-09-06T06:59:02.040Z,61.63
2022-09-06T07:00:02.020Z,61.30
2022-09-06T07:01:02.084Z,60.93
2022-09-06T07:02:02.132Z,61.71
2022-09-06T07:03:02.001Z,61.71
2022-09-06T07:04:01.980Z,61.71
2022-09-06T07:05:02.147Z,61.57
2022-09-06T07:08:02.959Z,60.46
2022-09-06T07:09:01.912Z,60.87
2022-09-06T07:11:02.892Z,60.46
2022-09-06T07:12:01.879Z,60.77
2022-09-06T07:13:01.870Z,60.97
2022-09-06T07:14:01.871Z,60.77
2022-09-06T07:15:01.853Z,60.74
2022-09-06T07:16:01.879Z,60.44
2022-09-06T07:17:04.108Z,60.64
2022-09-06T07:18:01.801Z,60.44
2022-09-06T07:19:01.874Z,60.03
2022-09-06T07:20:17.129Z,59.12
2022-09-06T07:22:05.262Z,60.03
2022-09-06T07:24:06.589Z,59.60
2022-09-06T07:25:01.767Z,60.81
2022-09-06T07:26:01.719Z,60.31
2022-09-06T07:28:05.734Z,59.67
2022-09-06T07:29:01.698Z,59.27
2022-09-06T07:30:01.692Z,59.67
2022-09-06T07:31:01.796Z,59.30
2022-09-06T07:32:16.982Z,59.27
2022-09-06T07:33:02.658Z,59.47
2022-09-06T07:34:01.637Z,60.17
2022-09-06T07:35:01.637Z,59.97
2022-09-06T07:36:01.597Z,59.37
2022-09-06T07:37:01.622Z,59.37
2022-09-06T07:38:01.579Z,59.57
2022-09-06T07:39:01.580Z,59.57
2022-09-06T07:40:01.684Z,60.08
2022-09-06T07:41:01.587Z,59.64
2022-09-06T07:42:01.558Z,59.37
2022-09-06T07:43:01.530Z,60.45
2022-09-06T07:44:01.534Z,60.75
2022-09-06T07:45:01.504Z,59.14
2022-09-06T07:46:01.536Z,58.94
2022-09-06T07:48:02.497Z,59.55
2022-09-06T07:49:01.467Z,59.52
2022-09-06T07:51:02.448Z,58.84
2022-09-06T07:53:12.973Z,58.81
2022-09-06T07:54:26.129Z,58.71
2022-09-06T07:55:02.395Z,59.22
2022-09-06T07:56:01.404Z,59.82
2022-09-06T07:57:01.383Z,59.08
2022-09-06T07:58:01.362Z,59.28
2022-09-06T07:59:01.364Z,59.19
2022-09-06T08:00:01.336Z,58.28
2022-09-06T08:01:01.431Z,58.55
2022-09-06T08:02:01.493Z,59.16
2022-09-06T08:03:01.317Z,59.66
2022-09-06T08:04:01.302Z,59.46
2022-09-06T08:05:01.317Z,58.83
2022-09-06T08:06:09.065Z,59.03
2022-09-06T08:09:02.260Z,57.02
2022-09-06T08:10:01.235Z,57.92
2022-09-06T08:11:01.216Z,59.03
2022-09-06T08:12:01.211Z,58.93
2022-09-06T08:13:01.270Z,58.42
2022-09-06T08:14:01.191Z,58.42
2022-09-06T08:15:01.187Z,59.10
2022-09-06T08:16:01.243Z,59.00
2022-09-06T08:17:01.161Z,58.50
2022-09-06T08:18:01.236Z,59.00
2022-09-06T08:19:01.124Z,58.70
2022-09-06T08:20:01.141Z,58.00
2022-09-06T08:21:01.127Z,58.09
2022-09-06T08:22:01.103Z,57.87
2022-09-06T08:23:01.092Z,57.57
2022-09-06T08:24:01.174Z,56.96
2022-09-06T08:25:01.068Z,57.87
2022-09-06T08:26:01.052Z,56.96
2022-09-06T08:27:01.118Z,57.17
2022-09-06T08:28:01.046Z,57.97
2022-09-06T08:29:01.105Z,57.37
2022-09-06T08:30:01.018Z,58.64
2022-09-06T08:31:00.996Z,58.37
2022-09-06T08:32:01.092Z,56.74
2022-09-06T08:33:00.972Z,57.06
2022-09-06T08:34:00.954Z,57.34
2022-09-06T08:35:01.018Z,56.84
2022-09-06T08:36:00.924Z,57.14
2022-09-06T08:37:00.914Z,58.54
2022-09-06T08:38:00.896Z,57.14
2022-09-06T08:39:00.898Z,57.04
2022-09-06T08:40:01.048Z,57.34
2022-09-06T08:41:00.888Z,57.84
2022-09-06T08:42:00.858Z,58.51
2022-09-06T08:43:00.848Z,58.31
2022-09-06T08:45:01.915Z,57.41
2022-09-06T08:46:00.814Z,57.91
2022-09-06T08:47:00.863Z,58.51
2022-09-06T08:48:00.811Z,58.39
2022-09-06T08:49:00.780Z,58.18
2022-09-06T08:50:00.777Z,57.39
2022-09-06T08:51:00.835Z,57.08
2022-09-06T08:52:00.739Z,58.09
2022-09-06T08:53:17.586Z,57.26
2022-09-06T08:54:01.714Z,56.85
2022-09-06T08:55:00.697Z,57.26
2022-09-06T08:56:00.755Z,57.86
2022-09-06T08:57:00.691Z,57.76
2022-09-06T08:58:00.700Z,58.16
2022-09-06T08:59:00.655Z,58.43
2022-09-06T09:00:00.660Z,57.13
2022-09-06T09:01:00.788Z,55.50
2022-09-06T09:02:00.672Z,55.60
2022-09-06T09:03:00.619Z,55.27
2022-09-06T09:04:00.629Z,55.27
2022-09-06T09:05:00.592Z,54.44
2022-09-06T09:06:00.585Z,53.64
2022-09-06T09:07:00.597Z,54.05
2022-09-06T09:08:00.550Z,54.72
2022-09-06T09:09:00.553Z,54.19
2022-09-06T09:10:00.546Z,52.69
2022-09-06T09:11:00.538Z,52.49
2022-09-06T09:12:00.528Z,52.29
2022-09-06T09:13:00.497Z,53.67
2022-09-06T09:14:00.501Z,52.67
2022-09-06T09:15:00.468Z,52.77
2022-09-06T09:16:00.521Z,52.27
2022-09-06T09:17:00.480Z,51.97
2022-09-06T09:18:00.445Z,52.17
2022-09-06T09:19:00.437Z,52.37
2022-09-06T09:20:00.415Z,51.77
2022-09-06T09:21:00.410Z,51.77
2022-09-06T09:22:00.649Z,51.94
2022-09-06T09:23:00.412Z,52.74
2022-09-06T09:24:00.414Z,51.84
2022-09-06T09:25:00.372Z,51.25
2022-09-06T09:26:00.369Z,50.74
2022-09-06T09:27:00.366Z,53.04
2022-09-06T09:28:00.335Z,51.94
2022-09-06T09:29:00.325Z,52.22
2022-09-06T09:31:01.359Z,51.12
2022-09-06T09:32:00.379Z,50.02
2022-09-06T09:33:00.297Z,49.52
2022-09-06T09:34:00.282Z,50.92
2022-09-06T09:35:00.298Z,50.72
2022-09-06T09:36:00.258Z,49.55
2022-09-06T09:38:07.857Z,50.84
2022-09-06T09:39:01.200Z,51.34
2022-09-06T09:40:00.360Z,52.34
2022-09-06T09:41:00.207Z,51.92
2022-09-06T09:42:00.202Z,51.59
2022-09-06T09:43:00.165Z,50.00
2022-09-06T09:44:04.452Z,50.00
2022-09-06T09:45:00.147Z,51.40
2022-09-06T09:46:00.147Z,50.10
2022-09-06T09:47:00.233Z,50.79
2022-09-06T09:48:00.112Z,49.60
2022-09-06T09:49:00.104Z,50.70
2022-09-06T09:50:00.089Z,49.80
2022-09-06T09:51:00.077Z,50.10
2022-09-06T09:52:00.088Z,49.62
2022-09-06T09:53:00.069Z,50.12
2022-09-06T09:54:00.031Z,51.22
2022-09-06T09:55:00.076Z,51.34
2022-09-06T09:56:00.014Z,52.25
2022-09-06T09:57:00.055Z,51.75
2022-09-06T09:57:59.991Z,50.15
2022-09-06T09:58:59.980Z,51.34
2022-09-06T09:59:59.989Z,52.44
2022-09-06T10:00:59.997Z,51.75
2022-09-06T10:01:59.969Z,51.15
2022-09-06T10:02:59.977Z,51.34
2022-09-06T10:05:00.919Z,51.92
2022-09-06T10:06:02.700Z,51.02
2022-09-06T10:08:00.875Z,51.02
2022-09-06T10:08:59.898Z,51.52
2022-09-06T10:09:59.874Z,50.72
2022-09-06T10:10:59.846Z,49.92
2022-09-06T10:11:59.868Z,50.74
2022-09-06T10:12:59.818Z,51.25
2022-09-06T10:13:59.812Z,51.04
2022-09-06T10:15:02.409Z,51.25
2022-09-06T10:16:00.825Z,52.64
2022-09-06T10:16:59.800Z,53.04
2022-09-06T10:17:59.767Z,52.55
2022-09-06T10:18:59.774Z,52.04
2022-09-06T10:19:59.740Z,52.25
2022-09-06T10:20:59.876Z,51.75
2022-09-06T10:21:59.746Z,51.94
2022-09-06T10:22:59.708Z,53.04
2022-09-06T10:25:00.694Z,51.84
2022-09-06T10:25:59.679Z,51.94
2022-09-06T10:26:59.676Z,52.97
2022-09-06T10:28:10.931Z,52.25
2022-09-06T10:29:00.641Z,52.37
2022-09-06T10:29:59.633Z,52.77
2022-09-06T10:30:59.678Z,52.77
2022-09-06T10:31:59.629Z,52.37
2022-09-06T10:32:59.597Z,52.17
2022-09-06T10:33:59.600Z,51.87
2022-09-06T10:34:59.652Z,51.97
2022-09-06T10:35:59.567Z,52.94
2022-09-06T10:36:59.612Z,52.47
2022-09-06T10:37:59.544Z,52.27
2022-09-06T10:39:03.767Z,52.84
2022-09-06T10:39:59.543Z,51.94
2022-09-06T10:40:59.503Z,52.74
2022-09-06T10:41:59.526Z,52.34
2022-09-06T10:42:59.488Z,52.64
2022-09-06T10:43:59.473Z,50.74
2022-09-06T10:44:59.466Z,51.25
2022-09-06T10:45:59.442Z,51.84
2022-09-06T10:46:59.477Z,51.15
2022-09-06T10:47:59.435Z,51.25
2022-09-06T10:48:59.427Z,51.64
2022-09-06T10:49:59.465Z,51.45
2022-09-06T10:50:59.397Z,51.04
2022-09-06T10:51:59.409Z,52.04
2022-09-06T10:52:59.375Z,51.75
2022-09-06T10:53:59.351Z,51.57
2022-09-06T10:54:59.349Z,52.07
2022-09-06T10:56:01.460Z,52.27
2022-09-06T10:56:59.329Z,51.79
2022-09-06T10:58:29.325Z,51.97
2022-09-06T11:00:00.294Z,51.97
2022-09-06T11:00:59.306Z,52.57
2022-09-06T11:01:59.383Z,52.29
2022-09-06T11:04:04.422Z,52.59
2022-09-06T11:06:00.213Z,52.07
2022-09-06T11:06:59.225Z,52.29
2022-09-06T11:09:00.285Z,52.89
2022-09-06T11:09:59.176Z,53.30
2022-09-06T11:10:59.162Z,54.90
2022-09-06T11:11:59.155Z,53.79
2022-09-06T11:12:59.166Z,54.39
2022-09-06T11:14:02.555Z,53.17
2022-09-06T11:15:00.153Z,54.60
2022-09-06T11:15:59.140Z,54.37
2022-09-06T11:16:59.133Z,54.47
2022-09-06T11:18:00.055Z,53.37
2022-09-06T11:18:59.083Z,53.07
2022-09-06T11:19:59.061Z,52.84
2022-09-06T11:20:59.084Z,52.04
2022-09-06T11:21:59.032Z,52.34
2022-09-06T11:22:59.094Z,52.55
2022-09-06T11:23:59.094Z,52.94
2022-09-06T11:24:59.002Z,53.74
2022-09-06T11:25:58.988Z,52.92
2022-09-06T11:26:58.982Z,53.22
2022-09-06T11:27:58.983Z,51.62
2022-09-06T11:28:58.953Z,52.32
2022-09-06T11:29:58.946Z,51.52
2022-09-06T11:30:59.033Z,52.04
2022-09-06T11:32:59.947Z,53.22
2022-09-06T11:34:01.236Z,52.82
2022-09-06T11:34:58.903Z,53.74
2022-09-06T11:35:58.876Z,53.72
2022-09-06T11:36:58.917Z,54.32
2022-09-06T11:37:58.875Z,52.52
2022-09-06T11:38:58.858Z,51.12
2022-09-06T11:40:59.841Z,52.04
2022-09-06T11:41:58.825Z,51.75
2022-09-06T11:42:58.843Z,51.64
2022-09-06T11:43:58.788Z,51.54
2022-09-06T11:44:58.844Z,51.45
2022-09-06T11:45:58.831Z,51.84
2022-09-06T11:46:58.778Z,52.25
2022-09-06T11:47:58.810Z,51.34
2022-09-06T11:48:58.769Z,51.54
2022-09-06T11:49:58.728Z,52.84
2022-09-06T11:50:58.731Z,52.94
2022-09-06T11:51:58.715Z,53.54
2022-09-06T11:52:58.787Z,52.25
2022-09-06T11:53:58.695Z,51.75
2022-09-06T11:54:58.692Z,51.94
2022-09-06T11:55:58.655Z,50.95
2022-09-06T11:56:58.645Z,51.15
2022-09-06T11:57:58.662Z,52.14
2022-09-06T11:58:58.624Z,52.94
2022-09-06T11:59:58.694Z,52.34
2022-09-06T12:00:58.601Z,52.55
2022-09-06T12:01:58.618Z,52.64
2022-09-06T12:05:00.391Z,52.34
2022-09-06T12:05:58.552Z,51.84
2022-09-06T12:06:58.522Z,52.25
2022-09-06T12:07:58.530Z,51.34
2022-09-06T12:08:58.527Z,51.75
2022-09-06T12:09:58.514Z,51.04
2022-09-06T12:10:58.509Z,51.45
2022-09-06T12:11:58.493Z,51.54
2022-09-06T12:12:58.465Z,52.04
2022-09-06T12:13:58.474Z,51.84
2022-09-06T12:14:58.441Z,52.74
2022-09-06T12:15:58.501Z,52.34
2022-09-06T12:16:58.429Z,52.55
2022-09-06T12:17:58.405Z,51.84
2022-09-06T12:18:58.459Z,51.84
2022-09-06T12:19:58.400Z,54.04
2022-09-06T12:20:58.383Z,52.55
2022-09-06T12:21:58.437Z,51.54
2022-09-06T12:22:58.365Z,51.34
2022-09-06T12:23:58.368Z,51.84
2022-09-06T12:24:58.358Z,51.64
2022-09-06T12:25:58.316Z,51.84
2022-09-06T12:26:58.366Z,52.64
2022-09-06T12:27:58.292Z,52.04
2022-09-06T12:28:58.279Z,51.15
2022-09-06T12:29:58.294Z,52.32
2022-09-06T12:30:58.297Z,52.64
2022-09-06T12:31:58.301Z,52.34
2022-09-06T12:32:58.232Z,54.24
2022-09-06T12:33:58.223Z,55.44
2022-09-06T12:35:59.835Z,54.94
2022-09-06T12:36:58.223Z,53.74
2022-09-06T12:37:58.175Z,52.25
2022-09-06T12:38:58.270Z,52.84
2022-09-06T12:39:58.234Z,53.14
2022-09-06T12:40:58.345Z,53.14
2022-09-06T12:41:58.201Z,55.21
2022-09-06T12:42:58.143Z,55.32
2022-09-06T12:43:58.102Z,53.04
2022-09-06T12:44:58.113Z,52.84
2022-09-06T12:45:58.130Z,52.42
2022-09-06T12:46:58.065Z,52.32
2022-09-06T12:47:58.185Z,51.92
2022-09-06T12:48:58.055Z,52.52
2022-09-06T12:49:58.034Z,51.82
2022-09-06T12:50:58.027Z,52.62
2022-09-06T12:51:58.064Z,52.82
2022-09-06T12:52:58.034Z,52.72
2022-09-06T12:53:58.010Z,52.72
2022-09-06T12:54:57.980Z,53.22
2022-09-06T12:55:58.014Z,53.42
2022-09-06T12:56:57.961Z,53.02
2022-09-06T12:57:57.949Z,52.82
2022-09-06T12:58:57.982Z,52.32
2022-09-06T12:59:57.925Z,52.49
2022-09-06T13:00:57.990Z,51.89
2022-09-06T13:01:58.057Z,52.49
2022-09-06T13:02:58.041Z,52.29
2022-09-06T13:03:57.938Z,52.59
2022-09-06T13:04:57.871Z,52.19
2022-09-06T13:05:57.858Z,52.99
2022-09-06T13:06:57.856Z,54.36
2022-09-06T13:07:57.899Z,52.29
2022-09-06T13:08:57.857Z,51.70
2022-09-06T13:09:57.805Z,52.00
2022-09-06T13:10:57.794Z,51.79
2022-09-06T13:11:57.782Z,52.17
2022-09-06T13:12:57.779Z,52.76
2022-09-06T13:13:57.776Z,53.47
2022-09-06T13:14:57.747Z,53.66
2022-09-06T13:15:57.826Z,52.47
2022-09-06T13:16:57.745Z,52.76
2022-09-06T13:17:57.715Z,53.66